Aviation Digital Data Service (ADDS)

Output produced by TAFs form (0143 UTC 20 January 2017)
found at http://aviationweather.gov/adds/tafs/
 
KCGZ 200056Z AUTO 06006KT 10SM OVC075 14/07 A2989 RMK AO2 SLP120 T01390067 $